Dundee, Texas
Current Conditions -  °F | °C
As of 6:15 PM on Friday 21 Nov 2014 (Local Time) from KCWC Reporting Station
Overcast Overcast  
Wind Chill: 65°   Ceiling: 4800
Heat Index: 65°   Visibility: 10mi
Dew Point: 54°   Wind: 3mph
Humidity: 68%   Direction: 340°NNW
Pressure: 30.02"   Gusts: NA
Location:  33.6107°N, 98.6955°W
Report Text: KCWC 220015Z AUTO 34003KT 10SM BKN048 OVC055 18/12 A3002 RMK AO2 T01810120
Loading
Personal Weather Stations






























Interactive Weather Map New forecast layout! Learn more

10-Day Weather Forecast

Advertisements
Track Severe Weather on mobile